KFYV/FYV METAR and TAF weather

Enter ICAO airport designator
Station Type Date Time Source
KFYV METAR 2019/06/17 03:53 UTC NOAA

KFYV 170353Z AUTO 00000KT 10SM SCT026 OVC033 21/20 A2989 RMK AO2 RAE16 SLP109 P0001 T02110200


Station Type Date Time Source
KFYV Decoded METAR 2019/06/17 03:53 UTC NOAA

FAYETTEVILLE DRAKE FIELD, AR, United States (KFYV) 36-00N 94-10W 379M
Jun 16, 2019 - 11:53 PM EDT / 2019.06.17 0353 UTC
Wind: Calm:0
Visibility: 10 mile(s):0
Sky conditions: overcast
Precipitation last hour: 0.01 inches
Temperature: 70.0 F (21.1 C)
Dew Point: 68.0 F (20.0 C)
Relative Humidity: 93%
Pressure (altimeter): 29.89 in. Hg (1012 hPa)
ob: KFYV 170353Z AUTO 00000KT 10SM SCT026 OVC033 21/20 A2989 RMK AO2 RAE16 SLP109 P0001 T02110200
cycle: 4

Station Type Date Time Source
KFYV TAF 2019/06/17 02:21 UTC NOAA

TAF
AMD KFYV 170217Z 1702/1724 19004KT P6SM VCTS SCT025 BKN040CB
TEMPO 1702/1705 5SM -TSRA BKN025CB
FM170500 19004KT P6SM OVC025
FM170800 18003KT 4SM -SHRA BR OVC015
FM171600 23005KT P6SM BKN025

Example: see airport list